createdAt,value
2023-03-12T00:01:48.310Z,44.02
2023-03-12T00:04:50.609Z,44.49
2023-03-12T00:07:53.582Z,44.19
2023-03-12T00:10:55.832Z,45.76
2023-03-12T00:14:00.409Z,44.53
2023-03-12T00:17:02.766Z,45.41
2023-03-12T00:20:08.819Z,44.42
2023-03-12T00:23:11.196Z,43.79
2023-03-12T00:26:14.448Z,44.82
2023-03-12T00:29:16.780Z,43.22
2023-03-12T00:32:19.303Z,42.93
2023-03-12T00:35:21.671Z,43.96
2023-03-12T00:38:23.951Z,44.03
2023-03-12T00:41:26.947Z,44.87
2023-03-12T00:44:29.423Z,43.52
2023-03-12T00:47:31.719Z,43.50
2023-03-12T00:50:34.892Z,44.08
2023-03-12T00:53:37.293Z,43.32
2023-03-12T00:56:39.636Z,43.32
2023-03-12T00:59:43.013Z,43.39
2023-03-12T01:02:45.357Z,43.08
2023-03-12T01:05:53.952Z,43.90
2023-03-12T01:08:56.514Z,44.44
2023-03-12T01:11:59.236Z,44.43
2023-03-12T01:15:01.886Z,42.66
2023-03-12T01:18:04.503Z,43.60
2023-03-12T01:21:06.898Z,42.49
2023-03-12T01:24:09.469Z,42.90
2023-03-12T01:27:12.334Z,41.78
2023-03-12T01:30:15.093Z,43.01
2023-03-12T01:33:18.598Z,42.16
2023-03-12T01:36:26.558Z,41.80
2023-03-12T01:39:28.880Z,41.44
2023-03-12T01:42:31.160Z,41.68
2023-03-12T01:46:00.912Z,42.22
2023-03-12T01:49:28.089Z,41.35
2023-03-12T01:52:34.213Z,41.97
2023-03-12T01:55:37.182Z,42.18
2023-03-12T01:58:41.380Z,41.75
2023-03-12T02:01:44.420Z,42.46
2023-03-12T02:04:47.830Z,41.78
2023-03-12T02:07:50.951Z,43.05
2023-03-12T02:10:53.263Z,41.90
2023-03-12T02:13:55.679Z,41.87
2023-03-12T02:16:58.339Z,42.44
2023-03-12T02:20:23.747Z,41.38
2023-03-12T02:23:35.854Z,42.29
2023-03-12T02:26:39.127Z,42.24
2023-03-12T02:29:45.006Z,41.95
2023-03-12T02:32:48.936Z,42.15
2023-03-12T02:35:53.127Z,42.34
2023-03-12T02:38:56.804Z,41.98
2023-03-12T02:41:59.810Z,41.79
2023-03-12T02:45:03.502Z,44.29
2023-03-12T02:48:08.853Z,41.76
2023-03-12T02:51:11.225Z,41.96
2023-03-12T02:54:15.232Z,41.77
2023-03-12T02:57:18.029Z,42.38
2023-03-12T03:00:20.899Z,42.13
2023-03-12T03:03:27.025Z,42.57
2023-03-12T03:06:30.083Z,43.52
2023-03-12T03:09:32.410Z,43.99
2023-03-12T03:12:35.895Z,43.11
2023-03-12T03:15:39.520Z,44.11
2023-03-12T03:18:42.198Z,44.75
2023-03-12T03:21:44.560Z,44.59
2023-03-12T03:24:47.286Z,46.04
2023-03-12T03:27:49.712Z,45.99
2023-03-12T03:30:58.401Z,46.36
2023-03-12T03:34:00.842Z,46.35
2023-03-12T03:37:03.298Z,46.22
2023-03-12T03:40:11.727Z,46.75
2023-03-12T03:43:14.684Z,46.17
2023-03-12T03:46:18.373Z,46.59
2023-03-12T03:49:25.680Z,46.72
2023-03-12T03:52:28.070Z,46.58
2023-03-12T03:55:30.505Z,46.55
2023-03-12T03:58:33.004Z,47.25
2023-03-12T04:01:36.837Z,47.19
2023-03-12T04:04:39.346Z,47.01
2023-03-12T04:07:43.075Z,47.40
2023-03-12T04:10:45.457Z,47.41
2023-03-12T04:13:48.774Z,47.78
2023-03-12T04:16:53.276Z,47.79
2023-03-12T04:19:55.786Z,47.72
2023-03-12T04:22:58.673Z,47.86
2023-03-12T04:26:01.619Z,47.85
2023-03-12T04:29:05.143Z,48.49
2023-03-12T04:32:07.920Z,49.04
2023-03-12T04:35:11.311Z,48.47
2023-03-12T04:38:13.902Z,49.25
2023-03-12T04:41:17.104Z,48.54
2023-03-12T04:44:26.902Z,49.98
2023-03-12T04:47:31.150Z,48.96
2023-03-12T04:50:33.755Z,48.91
2023-03-12T04:53:36.255Z,47.81
2023-03-12T04:56:39.215Z,48.77
2023-03-12T04:59:41.760Z,49.43
2023-03-12T05:02:44.341Z,48.79
2023-03-12T05:05:48.051Z,48.69
2023-03-12T05:08:50.694Z,48.23
2023-03-12T05:11:53.374Z,49.95
2023-03-12T05:14:57.394Z,49.49
2023-03-12T05:18:00.036Z,49.12
2023-03-12T05:21:08.147Z,49.31
2023-03-12T05:24:11.569Z,50.64
2023-03-12T05:27:14.413Z,49.34
2023-03-12T05:30:17.383Z,49.31
2023-03-12T05:33:19.784Z,49.76
2023-03-12T05:36:22.187Z,49.15
2023-03-12T05:39:25.696Z,49.66
2023-03-12T05:42:28.359Z,49.49
2023-03-12T05:45:42.163Z,49.37
2023-03-12T05:48:44.622Z,50.00
2023-03-12T05:51:48.843Z,50.25
2023-03-12T05:55:27.173Z,49.57
2023-03-12T05:58:29.599Z,49.41
2023-03-12T06:01:35.332Z,49.35
2023-03-12T06:04:39.486Z,48.66
2023-03-12T06:08:02.363Z,48.41
2023-03-12T06:11:05.294Z,48.18
2023-03-12T06:14:08.013Z,48.09
2023-03-12T06:17:11.845Z,47.22
2023-03-12T06:20:14.384Z,46.78
2023-03-12T06:23:16.840Z,46.58
2023-03-12T06:26:20.880Z,46.80
2023-03-12T06:29:23.158Z,46.53
2023-03-12T06:32:26.176Z,45.64
2023-03-12T06:35:28.615Z,44.06
2023-03-12T06:38:31.094Z,44.78
2023-03-12T06:41:34.017Z,43.86
2023-03-12T06:44:36.353Z,43.29
2023-03-12T06:47:38.691Z,43.71
2023-03-12T06:50:40.984Z,43.05
2023-03-12T06:53:44.227Z,42.54
2023-03-12T06:56:46.545Z,42.32
2023-03-12T06:59:51.692Z,42.09
2023-03-12T07:02:53.997Z,42.90
2023-03-12T07:06:05.258Z,40.76
2023-03-12T07:09:37.887Z,40.89
2023-03-12T07:12:45.651Z,41.55
2023-03-12T07:15:50.745Z,40.46
2023-03-12T07:18:53.063Z,40.69
2023-03-12T07:21:55.658Z,40.46
2023-03-12T07:24:58.228Z,38.38
2023-03-12T07:28:00.510Z,38.07
2023-03-12T07:31:04.366Z,37.52
2023-03-12T07:34:07.204Z,37.26
2023-03-12T07:37:09.568Z,36.91
2023-03-12T07:40:12.392Z,36.49
2023-03-12T07:43:14.725Z,35.46
2023-03-12T07:46:17.165Z,34.95
2023-03-12T07:49:20.546Z,34.70
2023-03-12T07:52:23.728Z,34.37
2023-03-12T07:55:26.242Z,33.92
2023-03-12T07:58:28.837Z,32.49
2023-03-12T08:01:34.514Z,32.36
2023-03-12T08:04:36.954Z,32.50
2023-03-12T08:07:39.439Z,32.24
2023-03-12T08:10:41.982Z,31.41
2023-03-12T08:13:44.581Z,30.16
2023-03-12T08:16:46.911Z,31.64
2023-03-12T08:19:49.349Z,30.44
2023-03-12T08:23:03.266Z,30.48
2023-03-12T08:26:05.790Z,30.03
2023-03-12T08:29:08.206Z,30.66
2023-03-12T08:32:10.978Z,30.31
2023-03-12T08:35:13.473Z,29.16
2023-03-12T08:38:15.876Z,29.35
2023-03-12T08:41:18.251Z,30.50
2023-03-12T08:44:20.659Z,29.96
2023-03-12T08:47:23.079Z,29.12
2023-03-12T08:50:29.424Z,30.64
2023-03-12T08:53:32.911Z,29.37
2023-03-12T08:56:37.250Z,30.07
2023-03-12T08:59:39.615Z,28.89
2023-03-12T09:02:45.904Z,29.59
2023-03-12T09:05:49.164Z,29.15
2023-03-12T09:08:51.995Z,28.74
2023-03-12T09:11:54.668Z,28.47
2023-03-12T09:15:05.177Z,26.74
2023-03-12T09:18:07.660Z,27.81
2023-03-12T09:21:10.117Z,28.21
2023-03-12T09:24:12.496Z,28.63
2023-03-12T09:27:14.837Z,28.89
2023-03-12T09:30:20.539Z,28.90
2023-03-12T09:33:22.887Z,28.32
2023-03-12T09:36:25.233Z,29.13
2023-03-12T09:39:27.518Z,27.55
2023-03-12T09:42:54.888Z,27.29
2023-03-12T09:45:57.287Z,27.91
2023-03-12T09:49:02.605Z,29.54
2023-03-12T09:52:18.572Z,27.52
2023-03-12T09:55:22.019Z,27.63
2023-03-12T09:58:35.931Z,28.85
2023-03-12T10:01:51.444Z,27.10
2023-03-12T10:05:07.463Z,27.09
2023-03-12T10:08:31.438Z,26.82
2023-03-12T10:12:23.011Z,27.28
2023-03-12T10:15:46.736Z,26.59
2023-03-12T10:18:55.021Z,25.58
2023-03-12T10:22:08.426Z,26.08
2023-03-12T10:25:25.035Z,25.88
2023-03-12T10:28:49.558Z,26.44
2023-03-12T10:31:59.120Z,26.29
2023-03-12T10:35:14.681Z,25.22
2023-03-12T10:38:28.400Z,25.02
2023-03-12T10:41:34.608Z,25.55
2023-03-12T10:44:37.286Z,26.27
2023-03-12T10:47:44.697Z,25.41
2023-03-12T10:51:01.168Z,24.68
2023-03-12T10:54:22.230Z,24.88
2023-03-12T10:57:39.840Z,24.85
2023-03-12T11:00:56.858Z,25.14
2023-03-12T11:04:15.312Z,25.36
2023-03-12T11:07:38.249Z,23.67
2023-03-12T11:10:44.602Z,24.15
2023-03-12T11:13:46.872Z,25.37
2023-03-12T11:16:50.502Z,22.50
2023-03-12T11:19:53.023Z,22.25
2023-03-12T11:22:55.953Z,21.92
2023-03-12T11:26:03.850Z,22.86
2023-03-12T11:29:18.243Z,23.86
2023-03-12T11:32:30.217Z,21.09
2023-03-12T11:35:54.352Z,22.61
2023-03-12T11:39:22.971Z,22.61
2023-03-12T11:42:40.397Z,20.94
2023-03-12T11:46:10.591Z,21.28
2023-03-12T11:49:38.788Z,21.48
2023-03-12T11:52:57.378Z,21.92
2023-03-12T11:56:24.816Z,21.00
2023-03-12T11:59:43.259Z,22.29
2023-03-12T12:03:11.381Z,18.47
2023-03-12T12:06:25.932Z,20.09
2023-03-12T12:09:28.906Z,19.93
2023-03-12T12:13:11.585Z,19.48
2023-03-12T12:16:30.937Z,19.75
2023-03-12T12:19:45.108Z,18.34
2023-03-12T12:23:15.958Z,21.19
2023-03-12T12:26:36.792Z,20.40
2023-03-12T12:30:03.354Z,18.96
2023-03-12T12:33:24.275Z,18.68
2023-03-12T12:36:30.150Z,19.26
2023-03-12T12:39:33.155Z,18.59
2023-03-12T12:42:40.496Z,18.14
2023-03-12T12:45:44.477Z,19.86
2023-03-12T12:48:50.641Z,17.72
2023-03-12T12:52:03.112Z,17.95
2023-03-12T12:55:14.511Z,19.40
2023-03-12T12:58:46.174Z,18.71
2023-03-12T13:01:49.342Z,19.85
2023-03-12T13:04:55.844Z,17.46
2023-03-12T13:07:58.212Z,18.53
2023-03-12T13:11:17.277Z,17.62
2023-03-12T13:14:35.719Z,17.82
2023-03-12T13:18:05.984Z,16.97
2023-03-12T13:21:33.238Z,17.23
2023-03-12T13:25:23.863Z,16.91
2023-03-12T13:28:26.584Z,18.22
2023-03-12T13:31:28.959Z,18.48
2023-03-12T13:34:42.950Z,18.14
2023-03-12T13:37:48.259Z,18.17
2023-03-12T13:40:54.699Z,17.97
2023-03-12T13:43:56.992Z,17.33
2023-03-12T13:47:32.449Z,17.34
2023-03-12T13:50:42.761Z,17.34
2023-03-12T13:53:53.527Z,17.36
2023-03-12T13:57:12.118Z,17.98
2023-03-12T14:00:21.466Z,16.52
2023-03-12T14:03:26.913Z,18.17
2023-03-12T14:06:30.576Z,16.18
2023-03-12T14:09:42.987Z,18.46
2023-03-12T14:12:54.547Z,17.46
2023-03-12T14:16:35.612Z,18.32
2023-03-12T14:19:38.037Z,19.52
2023-03-12T14:22:43.715Z,20.26
2023-03-12T14:25:47.952Z,18.65
2023-03-12T14:29:16.457Z,18.35
2023-03-12T14:32:22.477Z,19.49
2023-03-12T14:35:39.261Z,19.02
2023-03-12T14:38:44.353Z,19.84
2023-03-12T14:41:53.805Z,18.42
2023-03-12T14:45:08.318Z,19.08
2023-03-12T14:48:12.160Z,19.70
2023-03-12T14:51:26.539Z,21.84
2023-03-12T14:54:28.947Z,20.35
2023-03-12T14:57:31.333Z,19.73
2023-03-12T15:00:33.852Z,20.68
2023-03-12T15:03:47.637Z,19.03
2023-03-12T15:06:55.866Z,18.11
2023-03-12T15:09:58.584Z,19.34
2023-03-12T15:13:02.354Z,17.41
2023-03-12T15:16:05.975Z,21.76
2023-03-12T15:19:12.470Z,19.23
2023-03-12T15:22:25.610Z,18.44
2023-03-12T15:25:32.602Z,19.51
2023-03-12T15:28:34.947Z,19.35
2023-03-12T15:31:44.967Z,20.97
2023-03-12T15:34:48.199Z,20.15
2023-03-12T15:37:53.492Z,21.94
2023-03-12T15:40:59.576Z,22.69
2023-03-12T15:44:03.028Z,20.53
2023-03-12T15:47:14.632Z,21.47
2023-03-12T15:50:33.502Z,21.44
2023-03-12T15:53:35.852Z,21.37
2023-03-12T15:56:38.164Z,20.22
2023-03-12T15:59:40.461Z,21.47
2023-03-12T16:02:50.602Z,22.25
2023-03-12T16:05:52.903Z,22.62
2023-03-12T16:09:00.346Z,23.25
2023-03-12T16:12:02.851Z,25.23
2023-03-12T16:15:05.680Z,20.87
2023-03-12T16:18:20.246Z,21.09
2023-03-12T16:21:22.573Z,21.29
2023-03-12T16:24:24.813Z,21.36
2023-03-12T16:27:32.752Z,22.20
2023-03-12T16:30:36.886Z,21.34
2023-03-12T16:33:39.485Z,21.24
2023-03-12T16:36:41.709Z,21.17
2023-03-12T16:39:46.437Z,22.12
2023-03-12T16:42:51.066Z,22.16
2023-03-12T16:45:54.286Z,22.10
2023-03-12T16:48:56.707Z,22.38
2023-03-12T16:51:59.001Z,23.08
2023-03-12T16:55:01.398Z,23.25
2023-03-12T16:58:05.396Z,23.04
2023-03-12T17:01:12.853Z,23.63
2023-03-12T17:04:15.279Z,23.50
2023-03-12T17:07:18.189Z,22.69
2023-03-12T17:10:21.204Z,22.84
2023-03-12T17:13:26.085Z,22.49
2023-03-12T17:16:28.770Z,23.12
2023-03-12T17:19:31.102Z,23.13
2023-03-12T17:22:33.696Z,24.49
2023-03-12T17:25:38.984Z,23.91
2023-03-12T17:28:41.309Z,24.34
2023-03-12T17:31:43.922Z,25.75
2023-03-12T17:34:46.617Z,24.89
2023-03-12T17:37:49.062Z,24.39
2023-03-12T17:40:51.377Z,27.03
2023-03-12T17:43:54.846Z,26.68
2023-03-12T17:46:59.780Z,28.09
2023-03-12T17:50:03.079Z,25.20
2023-03-12T17:53:05.537Z,25.54
2023-03-12T17:56:08.086Z,25.72
2023-03-12T17:59:10.520Z,26.14
2023-03-12T18:02:14.434Z,26.91
2023-03-12T18:05:16.830Z,25.62
2023-03-12T18:08:19.192Z,25.44
2023-03-12T18:11:21.566Z,29.23
2023-03-12T18:14:23.849Z,27.58
2023-03-12T18:17:26.205Z,28.96
2023-03-12T18:20:37.708Z,28.74
2023-03-12T18:23:42.703Z,27.93
2023-03-12T18:26:45.729Z,27.28
2023-03-12T18:29:48.508Z,29.01
2023-03-12T18:32:50.783Z,29.26
2023-03-12T18:35:54.566Z,27.63
2023-03-12T18:38:57.060Z,27.25
2023-03-12T18:41:59.405Z,28.34
2023-03-12T18:45:01.881Z,28.05
2023-03-12T18:48:04.587Z,30.38
2023-03-12T18:51:06.953Z,29.81
2023-03-12T18:54:09.328Z,29.59
2023-03-12T18:57:12.543Z,31.01
2023-03-12T19:00:17.821Z,28.80
2023-03-12T19:03:24.365Z,31.15
2023-03-12T19:06:28.352Z,29.89
2023-03-12T19:09:31.905Z,31.70
2023-03-12T19:12:48.967Z,30.20
2023-03-12T19:16:01.312Z,32.30
2023-03-12T19:19:03.552Z,32.93
2023-03-12T19:22:05.901Z,33.46
2023-03-12T19:25:08.718Z,34.09
2023-03-12T19:28:11.027Z,34.38
2023-03-12T19:31:15.309Z,31.76
2023-03-12T19:34:17.879Z,32.46
2023-03-12T19:37:20.662Z,31.36
2023-03-12T19:40:22.979Z,30.31
2023-03-12T19:43:26.220Z,34.10
2023-03-12T19:46:28.517Z,35.30
2023-03-12T19:49:30.904Z,35.24
2023-03-12T19:52:33.298Z,32.93
2023-03-12T19:55:35.672Z,31.01
2023-03-12T19:58:38.039Z,34.30
2023-03-12T20:01:41.503Z,33.91
2023-03-12T20:04:43.854Z,31.04
2023-03-12T20:07:46.846Z,33.66
2023-03-12T20:10:49.810Z,33.09
2023-03-12T20:13:53.381Z,36.67
2023-03-12T20:16:55.849Z,32.22
2023-03-12T20:19:58.281Z,32.59
2023-03-12T20:23:00.598Z,31.87
2023-03-12T20:26:02.984Z,32.24
2023-03-12T20:29:05.948Z,31.56
2023-03-12T20:32:08.646Z,33.07
2023-03-12T20:35:11.141Z,31.70
2023-03-12T20:39:14.457Z,31.87
2023-03-12T20:42:24.123Z,31.66
2023-03-12T20:45:59.458Z,31.82
2023-03-12T20:49:08.042Z,33.01
2023-03-12T20:52:10.411Z,32.74
2023-03-12T20:55:12.793Z,32.17
2023-03-12T20:58:15.215Z,31.95
2023-03-12T21:01:17.682Z,32.43
2023-03-12T21:04:20.037Z,31.95
2023-03-12T21:07:22.399Z,31.92
2023-03-12T21:10:24.712Z,32.02
2023-03-12T21:13:26.974Z,31.98
2023-03-12T21:16:29.305Z,32.33
2023-03-12T21:19:31.697Z,32.65
2023-03-12T21:22:34.028Z,32.74
2023-03-12T21:25:37.715Z,32.47
2023-03-12T21:28:40.140Z,33.32
2023-03-12T21:31:42.561Z,33.00
2023-03-12T21:34:45.064Z,33.37
2023-03-12T21:37:47.373Z,33.19
2023-03-12T21:40:49.668Z,34.05
2023-03-12T21:43:52.072Z,34.13
2023-03-12T21:46:54.395Z,34.97
2023-03-12T21:49:56.702Z,34.90
2023-03-12T21:52:59.178Z,34.96
2023-03-12T21:56:02.237Z,35.32
2023-03-12T21:59:04.525Z,35.13
2023-03-12T22:02:07.131Z,36.43
2023-03-12T22:05:10.573Z,35.05
2023-03-12T22:08:12.982Z,35.47
2023-03-12T22:11:15.988Z,35.14
2023-03-12T22:14:18.314Z,35.87
2023-03-12T22:17:20.703Z,36.15
2023-03-12T22:20:22.985Z,35.52
2023-03-12T22:23:25.668Z,35.60
2023-03-12T22:26:28.349Z,35.98
2023-03-12T22:29:30.740Z,36.91
2023-03-12T22:32:33.294Z,35.82
2023-03-12T22:35:35.755Z,36.57
2023-03-12T22:38:38.886Z,36.50
2023-03-12T22:41:41.176Z,37.73
2023-03-12T22:44:43.499Z,38.14
2023-03-12T22:47:46.073Z,37.41
2023-03-12T22:50:54.836Z,38.34
2023-03-12T22:53:57.158Z,37.92
2023-03-12T22:56:59.877Z,38.11
2023-03-12T23:00:03.290Z,37.86
2023-03-12T23:03:05.568Z,38.17
2023-03-12T23:06:22.636Z,38.27
2023-03-12T23:09:25.055Z,37.66
2023-03-12T23:12:27.401Z,38.32
2023-03-12T23:15:40.555Z,37.57
2023-03-12T23:18:44.900Z,38.06
2023-03-12T23:21:47.338Z,37.61
2023-03-12T23:24:49.910Z,38.68
2023-03-12T23:27:52.604Z,38.33
2023-03-12T23:31:04.284Z,37.59
2023-03-12T23:34:07.890Z,38.09
2023-03-12T23:37:11.394Z,38.09
2023-03-12T23:40:16.899Z,38.20
2023-03-12T23:43:19.794Z,38.14
2023-03-12T23:46:22.481Z,38.35
2023-03-12T23:49:25.293Z,38.50
2023-03-12T23:52:27.717Z,38.78
2023-03-12T23:55:30.082Z,39.97
2023-03-12T23:58:32.683Z,39.26
